Time;durP1;ratioP1;P1;durP2;ratioP2;P2;SDS_P1;SDS_P2;PMS_P1;PMS_P2;Temp;Humidity;BMP_temperature;BMP_pressure;BME280_temperature;BME280_humidity;BME280_pressure;Samples;Min_cycle;Max_cycle;Signal;HPM_P1;HPM_P2
2023/09/02 00:01:48;;;;;;;5.67;4.03;;;20.00;60.30;;;;;;21145;6647;272320;-71
2023/09/02 00:04:14;;;;;;;3.77;3.20;;;20.20;59.90;;;;;;21360;6647;67171;-71
2023/09/02 00:06:39;;;;;;;4.62;3.92;;;20.00;59.90;;;;;;21144;6647;301295;-71
2023/09/02 00:09:05;;;;;;;5.20;3.80;;;20.10;59.80;;;;;;21358;6647;66825;-71
2023/09/02 00:11:30;;;;;;;6.18;4.90;;;19.90;59.90;;;;;;21137;6647;273815;-71
2023/09/02 00:13:57;;;;;;;5.35;4.85;;;20.10;59.50;;;;;;21138;6647;335717;-71
2023/09/02 00:16:24;;;;;;;4.07;3.43;;;20.10;59.50;;;;;;21351;6647;66956;-71
2023/09/02 00:18:49;;;;;;;6.97;3.30;;;19.90;59.60;;;;;;21356;6647;66698;-71
2023/09/02 00:21:15;;;;;;;3.78;3.47;;;19.60;60.20;;;;;;21143;6647;277933;-71
2023/09/02 00:23:45;;;;;;;4.47;3.37;;;19.60;60.60;;;;;;21350;6647;66191;-71
2023/09/02 00:26:10;;;;;;;3.40;3.10;;;19.30;61.60;;;;;;21365;6646;88957;-71
2023/09/02 00:28:35;;;;;;;4.43;3.90;;;19.30;60.90;;;;;;21145;6647;329653;-71
2023/09/02 00:31:01;;;;;;;5.77;3.40;;;19.40;60.90;;;;;;21353;6647;67136;-71
2023/09/02 00:33:27;;;;;;;3.67;3.37;;;19.30;60.60;;;;;;21355;6647;67051;-71
2023/09/02 00:35:53;;;;;;;5.40;2.97;;;18.90;61.50;;;;;;21350;6647;68446;-71
2023/09/02 00:38:19;;;;;;;3.65;3.35;;;18.90;61.40;;;;;;21132;6647;305713;-71
2023/09/02 00:40:45;;;;;;;3.70;3.40;;;19.50;61.40;;;;;;21142;6647;271896;-70
2023/09/02 00:43:11;;;;;;;4.20;3.90;;;19.50;61.40;;;;;;21109;6647;305077;-71
2023/09/02 00:45:36;;;;;;;4.25;3.20;;;19.80;60.30;;;;;;21357;6647;65584;-71
2023/09/02 00:48:02;;;;;;;2.90;2.80;;;19.60;60.10;;;;;;21351;6647;71908;-71
2023/09/02 00:50:28;;;;;;;3.50;3.17;;;19.00;60.90;;;;;;21358;6647;68943;-71
2023/09/02 00:52:54;;;;;;;3.70;3.40;;;19.00;60.90;;;;;;21360;6647;72984;-71
2023/09/02 00:55:20;;;;;;;4.00;3.07;;;18.80;61.40;;;;;;21353;6647;70647;-71
2023/09/02 00:57:45;;;;;;;3.10;2.90;;;18.60;61.70;;;;;;21360;6647;68666;-71
2023/09/02 01:00:11;;;;;;;5.23;3.13;;;18.50;62.10;;;;;;21354;6647;67217;-71
2023/09/02 01:02:36;;;;;;;3.50;3.20;;;18.40;62.40;;;;;;21128;6647;302921;-71
2023/09/02 01:05:02;;;;;;;4.40;3.53;;;18.60;61.60;;;;;;21352;6647;70683;-71
2023/09/02 01:07:27;;;;;;;5.43;3.60;;;18.60;61.30;;;;;;21124;6647;301338;-71
2023/09/02 01:09:53;;;;;;;4.15;3.47;;;18.80;61.50;;;;;;21352;6647;67594;-71
2023/09/02 01:12:18;;;;;;;3.87;3.60;;;18.90;61.50;;;;;;21343;6647;66306;-71
2023/09/02 01:14:44;;;;;;;3.80;3.60;;;18.70;61.90;;;;;;21348;6647;66682;-71
2023/09/02 01:17:10;;;;;;;3.67;3.37;;;18.50;62.20;;;;;;21355;6647;66740;-71
2023/09/02 01:19:35;;;;;;;3.70;3.40;;;18.40;62.50;;;;;;21346;6647;73422;-71
2023/09/02 01:22:03;;;;;;;3.75;3.45;;;18.30;62.70;;;;;;21347;6647;77477;-71
2023/09/02 01:24:46;;;;;;;4.30;3.90;;;18.10;62.80;;;;;;21093;6647;329901;-71
2023/09/02 01:27:25;;;;;;;4.00;3.07;;;18.40;63.10;;;;;;21329;6647;77181;-72
2023/09/02 01:29:55;;;;;;;4.50;3.20;;;18.70;62.90;;;;;;21125;6647;300190;-72
2023/09/02 01:32:19;;;;;;;3.60;3.30;;;18.70;62.40;;;;;;21113;6647;300519;-72
2023/09/02 01:34:45;;;;;;;3.23;3.00;;;19.10;61.20;;;;;;21360;6647;67217;-72
2023/09/02 01:37:10;;;;;;;2.93;2.80;;;19.00;61.10;;;;;;21356;6645;70786;-72
2023/09/02 01:39:37;;;;;;;4.03;3.72;;;18.80;61.90;;;;;;21128;6647;304271;-72
2023/09/02 01:42:03;;;;;;;3.80;3.50;;;18.90;61.40;;;;;;21357;6647;67134;-71
2023/09/02 01:44:29;;;;;;;3.90;3.30;;;18.80;61.30;;;;;;21349;6647;66714;-72
2023/09/02 01:46:55;;;;;;;3.78;3.47;;;18.60;61.70;;;;;;21134;6647;295199;-71
2023/09/02 01:49:20;;;;;;;3.43;3.23;;;18.80;61.80;;;;;;21352;6647;67206;-71
2023/09/02 01:51:45;;;;;;;3.30;3.00;;;18.70;61.50;;;;;;21357;6647;66299;-71
2023/09/02 01:54:11;;;;;;;3.00;2.80;;;18.50;62.00;;;;;;21358;6647;66270;-71
2023/09/02 01:56:37;;;;;;;3.85;3.60;;;18.30;62.50;;;;;;21137;6647;322752;-71
2023/09/02 01:59:02;;;;;;;3.40;3.20;;;18.50;62.10;;;;;;21360;6647;66687;-71
2023/09/02 02:01:28;;;;;;;3.00;2.80;;;18.50;61.80;;;;;;21364;6647;66706;-71
2023/09/02 02:04:03;;;;;;;3.30;3.00;;;18.30;62.00;;;;;;21355;6647;66777;-71
2023/09/02 02:06:30;;;;;;;3.40;3.20;;;18.10;62.20;;;;;;21345;6647;67623;-71
2023/09/02 02:09:06;;;;;;;3.13;2.93;;;17.80;63.50;;;;;;21344;6647;66789;-71
2023/09/02 02:11:33;;;;;;;3.30;2.70;;;17.80;62.90;;;;;;21255;6647;66576;-72
2023/09/02 02:13:59;;;;;;;3.37;3.07;;;17.70;63.40;;;;;;21343;6647;66286;-71
2023/09/02 02:16:25;;;;;;;3.73;3.43;;;17.60;63.30;;;;;;21122;6647;300715;-71
2023/09/02 02:18:52;;;;;;;3.90;3.60;;;18.00;63.50;;;;;;21137;6647;314464;-71
2023/09/02 02:21:17;;;;;;;4.20;3.83;;;18.40;62.50;;;;;;21145;6647;276477;-71
2023/09/02 02:23:43;;;;;;;4.00;3.60;;;18.80;61.40;;;;;;21142;6647;302203;-71
2023/09/02 02:26:08;;;;;;;3.33;2.97;;;19.00;60.70;;;;;;21355;6647;66215;-71
2023/09/02 02:28:36;;;;;;;3.45;3.17;;;18.90;60.30;;;;;;21147;6647;271699;-71
2023/09/02 02:31:00;;;;;;;5.10;2.90;;;18.90;60.30;;;;;;21359;6647;67043;-71
2023/09/02 02:33:26;;;;;;;5.55;2.90;;;18.80;60.50;;;;;;21134;6647;302211;-70
2023/09/02 02:35:51;;;;;;;3.77;2.73;;;18.80;60.40;;;;;;21352;6647;67102;-71
2023/09/02 02:38:18;;;;;;;3.80;2.67;;;18.40;61.50;;;;;;21365;6647;66324;-71
2023/09/02 02:40:43;;;;;;;3.75;3.00;;;18.40;60.90;;;;;;21137;6647;271591;-71
2023/09/02 02:43:10;;;;;;;4.83;2.63;;;18.40;60.50;;;;;;21354;6647;66548;-71
2023/09/02 02:45:35;;;;;;;2.80;2.50;;;18.50;60.60;;;;;;21351;6647;66795;-71
2023/09/02 02:48:01;;;;;;;4.83;3.10;;;18.20;60.90;;;;;;21134;6646;330360;-71
2023/09/02 02:50:26;;;;;;;3.50;3.12;;;18.30;60.90;;;;;;21142;6647;271991;-71
2023/09/02 02:52:52;;;;;;;3.30;3.00;;;18.70;60.00;;;;;;21134;6647;330212;-71
2023/09/02 02:55:17;;;;;;;5.57;3.10;;;18.90;59.30;;;;;;21136;6647;308095;-71
2023/09/02 02:57:43;;;;;;;5.00;3.50;;;19.00;59.10;;;;;;21140;6647;300924;-71
2023/09/02 03:00:09;;;;;;;5.23;3.40;;;19.30;58.30;;;;;;21129;6647;300573;-71
2023/09/02 03:02:35;;;;;;;12.63;4.03;;;19.30;58.30;;;;;;21135;6647;272338;-71
2023/09/02 03:05:00;;;;;;;11.80;3.20;;;19.40;58.20;;;;;;21348;6647;66204;-71
2023/09/02 03:07:26;;;;;;;2.72;2.53;;;19.10;58.60;;;;;;21357;6647;66763;-71
2023/09/02 03:09:55;;;;;;;2.97;2.50;;;18.70;59.30;;;;;;21352;6647;71050;-71
2023/09/02 03:12:20;;;;;;;4.97;2.23;;;18.30;60.20;;;;;;21351;6647;66804;-71
2023/09/02 03:14:49;;;;;;;4.10;2.80;;;18.10;61.00;;;;;;21356;6647;70370;-71
2023/09/02 03:17:20;;;;;;;4.27;2.97;;;17.80;62.10;;;;;;21353;6647;71049;-71
2023/09/02 03:19:44;;;;;;;2.77;2.50;;;17.80;62.10;;;;;;21346;6647;67085;-71
2023/09/02 03:22:10;;;;;;;3.33;2.77;;;17.70;62.60;;;;;;21363;6647;66657;-72
2023/09/02 03:24:35;;;;;;;55.87;3.50;;;17.60;62.90;;;;;;21359;6647;66637;-72
2023/09/02 03:27:03;;;;;;;26.02;3.35;;;17.50;63.10;;;;;;21143;6647;301402;-71
2023/09/02 03:29:27;;;;;;;20.27;2.80;;;17.80;62.70;;;;;;21350;6647;69898;-72
2023/09/02 03:31:52;;;;;;;15.60;2.80;;;17.80;62.30;;;;;;21132;6647;305545;-72
2023/09/02 03:34:18;;;;;;;27.85;2.83;;;18.00;62.30;;;;;;21355;6647;66421;-71
2023/09/02 03:36:43;;;;;;;57.53;3.55;;;18.00;62.00;;;;;;21131;6647;295491;-72
2023/09/02 03:39:09;;;;;;;19.87;2.42;;;18.20;61.40;;;;;;21056;6672;305621;-72
2023/09/02 03:41:37;;;;;;;4.23;2.10;;;18.40;60.70;;;;;;21276;6672;68959;-72
2023/09/02 03:44:01;;;;;;;14.70;2.70;;;18.40;60.00;;;;;;21133;6647;271952;-72
2023/09/02 03:46:27;;;;;;;15.27;2.30;;;18.40;60.00;;;;;;21354;6647;67232;-72
2023/09/02 03:48:52;;;;;;;2.60;1.80;;;18.20;60.00;;;;;;21345;6647;66209;-72
2023/09/02 03:51:18;;;;;;;1.73;1.63;;;17.70;61.20;;;;;;21349;6647;66638;-72
2023/09/02 03:53:44;;;;;;;21.87;2.60;;;17.60;61.10;;;;;;21347;6647;88399;-72
2023/09/02 03:56:09;;;;;;;27.47;2.40;;;17.50;61.60;;;;;;21354;6647;67865;-72
2023/09/02 03:58:35;;;;;;;2.12;1.92;;;17.30;61.80;;;;;;21139;6647;273963;-72
2023/09/02 04:01:00;;;;;;;3.03;2.47;;;17.60;61.20;;;;;;21132;6646;306306;-72
2023/09/02 04:03:26;;;;;;;3.37;2.40;;;17.90;60.40;;;;;;21135;6647;274767;-72
2023/09/02 04:05:51;;;;;;;3.03;1.95;;;18.20;60.10;;;;;;21138;6647;273203;-72
2023/09/02 04:08:18;;;;;;;6.78;2.03;;;18.30;59.30;;;;;;21352;6647;70326;-72
2023/09/02 04:10:43;;;;;;;2.13;1.87;;;18.20;58.90;;;;;;21351;6647;68127;-71
2023/09/02 04:13:09;;;;;;;2.57;1.50;;;17.90;59.60;;;;;;21357;6647;66769;-72
2023/09/02 04:15:35;;;;;;;23.60;2.03;;;17.40;60.70;;;;;;21361;6647;66490;-72
2023/09/02 04:18:01;;;;;;;115.53;5.43;;;17.40;60.70;;;;;;21352;6647;66942;-72
2023/09/02 04:20:26;;;;;;;211.30;5.95;;;17.10;61.10;;;;;;21144;6647;278387;-72
2023/09/02 04:22:52;;;;;;;109.80;4.40;;;17.30;61.70;;;;;;21357;6647;66908;-72
2023/09/02 04:25:19;;;;;;;184.23;6.53;;;17.20;62.60;;;;;;21345;6647;66694;-72
2023/09/02 04:27:44;;;;;;;103.65;4.95;;;17.20;61.90;;;;;;21059;6647;330006;-72
2023/09/02 04:30:10;;;;;;;443.63;10.50;;;17.40;62.40;;;;;;21351;6647;66240;-72
2023/09/02 04:32:35;;;;;;;326.53;10.03;;;17.40;62.20;;;;;;21334;6647;66720;-72
2023/09/02 04:35:02;;;;;;;326.07;10.53;;;17.30;62.50;;;;;;21347;6647;66674;-71
2023/09/02 04:37:28;;;;;;;414.37;12.20;;;17.10;62.80;;;;;;21303;6647;65888;-71
2023/09/02 04:39:54;;;;;;;101.10;4.87;;;17.00;63.20;;;;;;21342;6647;66638;-74
2023/09/02 04:42:20;;;;;;;337.83;9.30;;;17.00;63.60;;;;;;21134;6647;271728;-73
2023/09/02 04:44:45;;;;;;;268.13;7.40;;;17.20;63.70;;;;;;21109;6647;272183;-74
2023/09/02 04:47:12;;;;;;;577.30;12.67;;;17.60;62.60;;;;;;21126;6647;303671;-72
2023/09/02 04:49:36;;;;;;;574.97;12.93;;;18.00;61.50;;;;;;21130;6647;272286;-73
2023/09/02 04:52:03;;;;;;;794.93;16.13;;;18.20;60.80;;;;;;21119;6647;300855;-72
2023/09/02 04:54:27;;;;;;;435.40;18.50;;;18.40;60.40;;;;;;21320;6647;66896;-72
2023/09/02 04:56:53;;;;;;;662.80;15.00;;;18.20;60.60;;;;;;21333;6647;68390;-72
2023/09/02 04:59:19;;;;;;;747.27;16.73;;;17.90;61.50;;;;;;21122;6647;277017;-74
2023/09/02 05:01:44;;;;;;;164.27;6.30;;;18.00;62.10;;;;;;21107;6647;288272;-74
2023/09/02 05:04:10;;;;;;;497.92;12.40;;;18.20;61.80;;;;;;21099;6647;301086;-71
2023/09/02 05:06:36;;;;;;;650.50;15.23;;;18.40;61.20;;;;;;21336;6647;73070;-71
2023/09/02 05:09:01;;;;;;;285.77;9.20;;;18.30;61.30;;;;;;21131;6647;272165;-71
2023/09/02 05:11:27;;;;;;;305.02;8.38;;;18.40;61.50;;;;;;21134;6645;272204;-71
2023/09/02 05:13:52;;;;;;;176.33;6.40;;;18.60;61.10;;;;;;21134;6647;300415;-71
2023/09/02 05:16:18;;;;;;;240.70;7.03;;;18.80;60.50;;;;;;21343;6647;66786;-71
2023/09/02 05:18:43;;;;;;;288.42;7.78;;;18.60;60.70;;;;;;21147;6647;300840;-71
2023/09/02 05:21:10;;;;;;;156.07;6.35;;;18.80;60.90;;;;;;21136;6647;302054;-71
2023/09/02 05:23:35;;;;;;;116.20;5.10;;;18.80;60.50;;;;;;21143;6647;302739;-71
2023/09/02 05:26:02;;;;;;;274.33;7.90;;;19.10;59.40;;;;;;21137;6647;301890;-71
2023/09/02 05:28:27;;;;;;;80.68;4.78;;;19.10;59.40;;;;;;21134;6647;305832;-71
2023/09/02 05:30:53;;;;;;;38.80;3.57;;;19.30;59.50;;;;;;21326;6647;72997;-71
2023/09/02 05:33:19;;;;;;;88.40;4.07;;;19.00;59.80;;;;;;21349;6647;66208;-74
2023/09/02 05:35:45;;;;;;;38.38;3.55;;;18.70;60.60;;;;;;21142;6647;300976;-73
2023/09/02 05:38:10;;;;;;;10.60;2.60;;;18.70;60.60;;;;;;21354;6647;67229;-74
2023/09/02 05:40:43;;;;;;;10.67;2.70;;;18.60;60.80;;;;;;21357;6647;66687;-74
2023/09/02 05:43:08;;;;;;;3.30;2.87;;;18.40;61.40;;;;;;21132;6647;331051;-74
2023/09/02 05:45:34;;;;;;;2.50;2.30;;;18.60;60.80;;;;;;21362;6647;67259;-74
2023/09/02 05:48:00;;;;;;;2.90;2.70;;;18.50;60.60;;;;;;21153;6647;300998;-73
2023/09/02 05:50:31;;;;;;;2.60;2.50;;;18.60;60.40;;;;;;21140;6647;300171;-81
2023/09/02 05:52:57;;;;;;;4.97;2.73;;;18.80;60.20;;;;;;21139;6647;272419;-75
2023/09/02 05:55:23;;;;;;;2.90;2.70;;;19.00;59.90;;;;;;21061;6647;287750;-75
2023/09/02 05:57:48;;;;;;;2.03;1.97;;;19.20;59.70;;;;;;21352;6647;71125;-75
2023/09/02 06:00:14;;;;;;;2.60;2.40;;;19.00;60.00;;;;;;21128;6647;300127;-77
2023/09/02 06:02:40;;;;;;;1.90;1.80;;;18.90;60.40;;;;;;21347;6647;67086;-76
2023/09/02 06:05:06;;;;;;;2.23;2.13;;;18.90;60.40;;;;;;21323;6647;75949;-77
2023/09/02 06:07:32;;;;;;;3.72;2.60;;;18.60;61.00;;;;;;21124;6647;301680;-77
2023/09/02 06:09:59;;;;;;;2.90;2.70;;;18.80;61.60;;;;;;21131;6647;300605;-78
2023/09/02 06:12:24;;;;;;;2.80;2.60;;;19.10;61.10;;;;;;21339;6647;66260;-75
2023/09/02 06:14:50;;;;;;;2.50;2.40;;;19.00;61.00;;;;;;21349;6647;66716;-75
2023/09/02 06:17:16;;;;;;;2.43;2.33;;;18.80;61.80;;;;;;21351;6647;67598;-76
2023/09/02 06:19:41;;;;;;;3.23;2.17;;;18.70;62.90;;;;;;21355;6647;66702;-76
2023/09/02 06:22:07;;;;;;;3.10;2.55;;;18.80;63.70;;;;;;21133;6646;329708;-77
2023/09/02 06:24:32;;;;;;;2.60;2.40;;;19.20;63.30;;;;;;21116;6646;271469;-77
2023/09/02 06:27:03;;;;;;;2.20;2.10;;;20.00;61.70;;;;;;21321;6647;65604;-76
2023/09/02 06:29:24;;;;;;;3.97;2.57;;;20.00;61.70;;;;;;21310;6647;65934;-77
2023/09/02 06:31:50;;;;;;;2.25;2.15;;;20.00;62.00;;;;;;21319;6647;66397;-78
2023/09/02 06:34:18;;;;;;;2.40;2.20;;;20.00;62.20;;;;;;21325;6647;66243;-75
2023/09/02 06:36:41;;;;;;;2.90;2.63;;;20.00;62.10;;;;;;21123;6647;272003;-75
2023/09/02 06:39:07;;;;;;;2.80;2.70;;;20.20;60.90;;;;;;21139;6647;301644;-76
2023/09/02 06:41:32;;;;;;;3.30;3.00;;;20.70;60.00;;;;;;21145;6647;299328;-74
2023/09/02 06:43:58;;;;;;;3.17;2.97;;;21.00;58.90;;;;;;21141;6647;304395;-74
2023/09/02 06:46:23;;;;;;;3.00;2.80;;;21.20;57.90;;;;;;21361;6647;69645;-73
2023/09/02 06:48:49;;;;;;;2.93;2.60;;;21.10;58.10;;;;;;21358;6647;66142;-75
2023/09/02 06:51:14;;;;;;;2.80;2.60;;;20.90;58.80;;;;;;21126;6647;275926;-73
2023/09/02 06:53:40;;;;;;;3.43;2.40;;;21.00;58.60;;;;;;21327;6647;66254;-72
2023/09/02 06:56:06;;;;;;;2.93;2.60;;;21.00;58.70;;;;;;21095;6647;271905;-72
2023/09/02 06:58:31;;;;;;;4.00;2.90;;;21.10;58.20;;;;;;21097;6647;349845;-75
2023/09/02 07:00:57;;;;;;;2.87;2.65;;;21.50;58.20;;;;;;21119;6647;300250;-74
2023/09/02 07:03:22;;;;;;;2.60;2.40;;;21.80;57.40;;;;;;21347;6647;66716;-74
2023/09/02 07:05:48;;;;;;;2.58;2.47;;;21.70;57.30;;;;;;21139;6647;278322;-74
2023/09/02 07:08:13;;;;;;;2.60;2.40;;;21.80;56.70;;;;;;21347;6647;67204;-74
2023/09/02 07:10:39;;;;;;;4.77;2.20;;;21.80;57.10;;;;;;21343;6647;65905;-74
2023/09/02 07:13:04;;;;;;;2.63;2.40;;;21.70;57.50;;;;;;21127;6647;275980;-74
2023/09/02 07:15:30;;;;;;;2.73;2.63;;;21.90;57.10;;;;;;21111;6647;334307;-74
2023/09/02 07:17:56;;;;;;;2.43;2.30;;;22.30;56.50;;;;;;21337;6647;67432;-74
2023/09/02 07:20:21;;;;;;;2.72;2.53;;;22.40;56.50;;;;;;21086;6647;302726;-74
2023/09/02 07:22:47;;;;;;;4.20;2.40;;;22.70;56.70;;;;;;21337;6647;65896;-75
2023/09/02 07:25:13;;;;;;;2.33;2.10;;;22.70;56.30;;;;;;21343;6647;66196;-75
2023/09/02 07:27:39;;;;;;;2.60;2.40;;;22.60;56.60;;;;;;21121;6647;304127;-72
2023/09/02 07:30:04;;;;;;;2.55;2.35;;;22.80;56.20;;;;;;21121;6647;300173;-72
2023/09/02 07:32:30;;;;;;;2.73;2.10;;;23.30;55.60;;;;;;21339;6647;65650;-73
2023/09/02 07:34:55;;;;;;;2.58;2.12;;;23.40;55.60;;;;;;21124;6646;272024;-73
2023/09/02 07:37:21;;;;;;;2.00;1.90;;;23.60;55.40;;;;;;21104;6647;303022;-72
2023/09/02 07:39:48;;;;;;;1.98;1.87;;;24.00;53.70;;;;;;21318;6647;65948;-72
2023/09/02 07:42:14;;;;;;;6.30;2.07;;;24.10;54.10;;;;;;21296;6647;66419;-72
2023/09/02 07:44:39;;;;;;;2.35;1.90;;;23.90;54.70;;;;;;21128;6647;329954;-72
2023/09/02 07:47:05;;;;;;;2.13;2.03;;;24.20;53.70;;;;;;21082;6647;303741;-72
2023/09/02 07:49:31;;;;;;;2.40;2.03;;;24.50;53.00;;;;;;21106;6647;284023;-72
2023/09/02 07:51:57;;;;;;;2.17;1.90;;;24.90;52.10;;;;;;21133;6647;272008;-72
2023/09/02 07:54:22;;;;;;;2.23;2.13;;;25.20;51.80;;;;;;21331;6647;71887;-72
2023/09/02 07:56:48;;;;;;;1.83;1.73;;;25.10;52.30;;;;;;21329;6647;65766;-72
2023/09/02 07:59:14;;;;;;;3.10;1.90;;;24.90;53.10;;;;;;21348;6647;65596;-75
2023/09/02 08:01:39;;;;;;;2.30;2.20;;;24.80;53.60;;;;;;21129;6647;276800;-74
2023/09/02 08:04:05;;;;;;;2.63;2.20;;;25.10;52.90;;;;;;21130;6647;272620;-72
2023/09/02 08:06:31;;;;;;;2.10;2.00;;;25.50;52.30;;;;;;21344;6647;65724;-74
2023/09/02 08:08:56;;;;;;;2.80;2.40;;;25.60;52.20;;;;;;21133;6647;272413;-72
2023/09/02 08:11:22;;;;;;;3.37;2.50;;;25.70;50.40;;;;;;21122;6647;272891;-71
2023/09/02 08:13:48;;;;;;;3.17;2.08;;;25.80;50.40;;;;;;21325;6647;66210;-72
2023/09/02 08:16:14;;;;;;;2.70;2.50;;;26.00;50.30;;;;;;21053;6672;273438;-72
2023/09/02 08:18:40;;;;;;;3.27;2.20;;;25.90;50.20;;;;;;21339;6647;68999;-74
2023/09/02 08:21:09;;;;;;;2.57;2.23;;;26.00;50.70;;;;;;21108;6647;304934;-74
2023/09/02 08:23:34;;;;;;;2.40;2.20;;;26.10;49.90;;;;;;21335;6647;66668;-74
2023/09/02 08:25:59;;;;;;;2.40;2.20;;;26.10;50.10;;;;;;21356;6647;66144;-74
2023/09/02 08:28:25;;;;;;;3.13;2.07;;;25.90;50.30;;;;;;21335;6647;66757;-74
2023/09/02 08:30:52;;;;;;;2.93;2.10;;;25.80;50.50;;;;;;21360;6647;65763;-73
2023/09/02 08:33:17;;;;;;;2.53;2.43;;;25.80;50.70;;;;;;21348;6647;66170;-73
2023/09/02 08:35:44;;;;;;;3.40;2.43;;;25.70;50.90;;;;;;21128;6647;329717;-73
2023/09/02 08:38:10;;;;;;;3.13;2.57;;;26.00;50.60;;;;;;21090;6647;301622;-73
2023/09/02 08:40:35;;;;;;;2.23;2.13;;;26.50;50.40;;;;;;21344;6647;65751;-73
2023/09/02 08:43:04;;;;;;;2.50;2.30;;;26.50;49.70;;;;;;21279;6647;71057;-72
2023/09/02 08:45:31;;;;;;;4.67;2.50;;;26.60;50.10;;;;;;21102;6646;278301;-72
2023/09/02 08:47:56;;;;;;;2.27;2.17;;;26.60;50.10;;;;;;21097;6646;301206;-72
2023/09/02 08:50:23;;;;;;;2.40;2.20;;;27.00;49.00;;;;;;21331;6647;68514;-72
2023/09/02 08:52:51;;;;;;;3.72;2.40;;;27.10;49.30;;;;;;21105;6647;303978;-73
2023/09/02 08:55:14;;;;;;;2.67;2.47;;;27.30;48.60;;;;;;21114;6647;301289;-73
2023/09/02 08:57:40;;;;;;;4.15;2.30;;;27.70;48.70;;;;;;21340;6647;65257;-73
2023/09/02 09:00:06;;;;;;;2.33;2.23;;;27.70;48.80;;;;;;21349;6647;66495;-72
2023/09/02 09:02:31;;;;;;;2.30;2.10;;;27.50;49.00;;;;;;21119;6647;277091;-73
2023/09/02 09:04:58;;;;;;;3.43;2.20;;;27.80;48.90;;;;;;21343;6647;65579;-72
2023/09/02 09:07:23;;;;;;;2.10;2.00;;;27.80;48.80;;;;;;21348;6647;66248;-72
2023/09/02 09:09:49;;;;;;;2.33;2.13;;;27.70;48.70;;;;;;21350;6647;66134;-71
2023/09/02 09:12:14;;;;;;;2.37;2.00;;;27.60;48.80;;;;;;21350;6647;64938;-71
2023/09/02 09:14:40;;;;;;;3.13;2.10;;;27.50;49.40;;;;;;21344;6647;65677;-71
2023/09/02 09:17:06;;;;;;;2.20;1.93;;;27.50;49.40;;;;;;21329;6647;65707;-71
2023/09/02 09:19:33;;;;;;;3.73;1.90;;;27.50;49.60;;;;;;21274;6672;66605;-71
2023/09/02 09:21:58;;;;;;;2.20;1.97;;;27.50;49.60;;;;;;21117;6647;301532;-72
2023/09/02 09:24:26;;;;;;;3.10;2.20;;;27.80;48.00;;;;;;21127;6647;300958;-74
2023/09/02 09:26:50;;;;;;;2.40;2.20;;;28.20;46.90;;;;;;21337;6647;65249;-74
2023/09/02 09:29:15;;;;;;;2.50;2.30;;;28.30;47.20;;;;;;21346;6647;65735;-74
2023/09/02 09:31:41;;;;;;;2.27;2.07;;;28.20;47.80;;;;;;21343;6647;66787;-73
2023/09/02 09:34:07;;;;;;;2.03;1.93;;;28.20;47.80;;;;;;21341;6647;66265;-73
2023/09/02 09:36:33;;;;;;;7.00;2.20;;;28.20;48.10;;;;;;21351;6647;72471;-74
2023/09/02 09:39:06;;;;;;;2.43;2.00;;;28.20;48.10;;;;;;21127;6647;305007;-75
2023/09/02 09:41:31;;;;;;;2.50;2.30;;;28.50;45.80;;;;;;21351;6647;65743;-76
2023/09/02 09:44:14;;;;;;;2.37;2.10;;;28.80;46.20;;;;;;21110;6647;304864;-77
2023/09/02 09:46:42;;;;;;;2.47;2.27;;;29.10;45.40;;;;;;21348;6647;67107;-75
2023/09/02 09:49:09;;;;;;;3.40;3.20;;;29.50;42.50;;;;;;21132;6647;302165;-74
2023/09/02 09:51:35;;;;;;;2.03;1.93;;;29.50;42.50;;;;;;21153;6647;65834;-75
2023/09/02 09:54:01;;;;;;;3.17;2.67;;;29.50;43.20;;;;;;21141;6647;293819;-75
2023/09/02 09:56:26;;;;;;;4.18;3.87;;;29.70;43.80;;;;;;21142;6647;330025;-75
2023/09/02 09:58:52;;;;;;;3.00;2.90;;;30.10;43.10;;;;;;21140;6645;302293;-75
2023/09/02 10:01:21;;;;;;;13.70;2.80;;;30.30;41.50;;;;;;21128;6647;300172;-75
2023/09/02 10:03:47;;;;;;;2.20;2.00;;;30.60;40.40;;;;;;21123;6647;308378;-75
2023/09/02 10:06:12;;;;;;;1.95;1.83;;;30.80;41.10;;;;;;21135;6647;297772;-75
2023/09/02 10:08:51;;;;;;;2.05;1.87;;;31.00;40.10;;;;;;21146;6647;289856;-78
2023/09/02 10:11:23;;;;;;;2.75;2.55;;;31.10;40.40;;;;;;21123;6647;329937;-74
2023/09/02 10:13:48;;;;;;;2.43;1.83;;;31.30;38.40;;;;;;21058;6647;272880;-75
2023/09/02 10:16:14;;;;;;;2.70;2.00;;;31.30;38.90;;;;;;21115;6647;330058;-75
2023/09/02 10:18:39;;;;;;;2.13;1.80;;;31.30;37.40;;;;;;21102;6647;302328;-76
2023/09/02 10:21:05;;;;;;;2.03;1.70;;;31.40;36.70;;;;;;21098;6647;272366;-75
2023/09/02 10:23:32;;;;;;;2.65;1.80;;;31.50;38.10;;;;;;21126;6647;272301;-75
2023/09/02 10:26:07;;;;;;;1.73;1.62;;;31.50;38.10;;;;;;21108;6647;301439;-75
2023/09/02 10:28:39;;;;;;;1.43;1.40;;;31.60;36.50;;;;;;21324;6647;65384;-75
2023/09/02 10:31:24;;;;;;;1.93;1.60;;;31.40;36.60;;;;;;21333;6647;65850;-80
2023/09/02 10:34:18;;;;;;;3.27;1.60;;;31.10;35.80;;;;;;21313;6647;66177;-77
2023/09/02 10:36:39;;;;;;;1.30;1.27;;;30.80;37.20;;;;;;21307;6647;67015;-77
2023/09/02 10:39:05;;;;;;;2.07;1.70;;;30.60;37.40;;;;;;21121;6647;272668;-78
2023/09/02 10:41:31;;;;;;;1.60;1.50;;;30.70;36.40;;;;;;21116;6647;329156;-74
2023/09/02 10:43:56;;;;;;;1.70;1.60;;;31.00;36.00;;;;;;21343;6647;65313;-73
2023/09/02 10:46:22;;;;;;;1.27;1.20;;;30.90;37.00;;;;;;21348;6647;65235;-74
2023/09/02 10:48:48;;;;;;;1.60;1.50;;;30.90;37.00;;;;;;21339;6647;65838;-74
2023/09/02 10:51:13;;;;;;;1.70;1.60;;;30.70;37.10;;;;;;21122;6647;306597;-73
2023/09/02 10:53:50;;;;;;;2.00;1.33;;;30.80;37.10;;;;;;21117;6647;329682;-73
2023/09/02 10:56:37;;;;;;;1.50;1.30;;;31.10;36.20;;;;;;21264;6647;66254;-73
2023/09/02 10:59:03;;;;;;;2.03;1.60;;;31.10;36.40;;;;;;21100;6647;300843;-73
2023/09/02 11:01:41;;;;;;;3.37;1.47;;;31.10;34.40;;;;;;21344;6647;67085;-75
2023/09/02 11:04:07;;;;;;;1.73;1.30;;;31.10;35.20;;;;;;20718;6647;301367;-74
2023/09/02 11:06:32;;;;;;;2.53;1.70;;;31.10;34.70;;;;;;21141;6647;301415;-76
2023/09/02 11:08:58;;;;;;;1.33;1.33;;;31.30;35.50;;;;;;21337;6646;65750;-73
2023/09/02 11:11:23;;;;;;;1.60;1.50;;;31.20;35.20;;;;;;21129;6647;272127;-73
2023/09/02 11:14:09;;;;;;;1.93;1.50;;;31.20;33.70;;;;;;21344;6647;70543;-73
2023/09/02 11:16:34;;;;;;;3.67;1.60;;;31.10;34.70;;;;;;21121;6647;301000;-73
2023/09/02 11:19:00;;;;;;;1.55;1.50;;;31.20;34.70;;;;;;21126;6647;326245;-72
2023/09/02 11:21:35;;;;;;;3.35;1.50;;;31.40;34.00;;;;;;21340;6647;65986;-73
2023/09/02 11:24:21;;;;;;;1.77;1.37;;;31.30;34.70;;;;;;21097;6647;305067;-74
2023/09/02 11:26:56;;;;;;;1.37;1.27;;;31.40;33.90;;;;;;21135;6647;274232;-74
2023/09/02 11:29:22;;;;;;;0.90;0.90;;;31.70;32.30;;;;;;21343;6647;66313;-74
2023/09/02 11:32:00;;;;;;;1.20;1.10;;;31.60;32.60;;;;;;21358;6647;65702;-73
2023/09/02 11:34:29;;;;;;;1.20;1.10;;;31.30;32.90;;;;;;21348;6647;78675;-74
2023/09/02 11:36:56;;;;;;;3.10;1.40;;;30.90;33.30;;;;;;21344;6647;65205;-73
2023/09/02 11:39:26;;;;;;;1.50;1.40;;;30.60;34.40;;;;;;21309;6647;65816;-75
2023/09/02 11:42:10;;;;;;;1.00;1.00;;;30.60;34.50;;;;;;21303;6647;65842;-73
2023/09/02 11:44:36;;;;;;;2.10;2.00;;;30.50;34.80;;;;;;21342;6647;66646;-72
2023/09/02 11:47:03;;;;;;;1.40;1.30;;;30.30;34.90;;;;;;21321;6647;69939;-75
2023/09/02 11:49:29;;;;;;;1.40;1.30;;;30.30;35.30;;;;;;21142;6647;303981;-73
2023/09/02 11:51:54;;;;;;;3.27;2.97;;;30.50;34.30;;;;;;21129;6647;305892;-72
2023/09/02 11:54:20;;;;;;;4.30;3.50;;;30.80;34.20;;;;;;21113;6647;306937;-73
2023/09/02 11:57:00;;;;;;;1.90;1.33;;;31.10;34.70;;;;;;21349;6647;65331;-72
2023/09/02 11:59:24;;;;;;;5.40;1.90;;;31.10;34.70;;;;;;21124;6647;301218;-73
2023/09/02 12:02:07;;;;;;;5.27;1.60;;;31.10;36.20;;;;;;21360;6647;65289;-73
2023/09/02 12:04:36;;;;;;;1.80;1.70;;;31.10;35.50;;;;;;21136;6647;329250;-72
2023/09/02 12:07:01;;;;;;;1.60;1.50;;;31.30;34.80;;;;;;21347;6647;66197;-72
2023/09/02 12:09:27;;;;;;;1.63;1.57;;;31.30;35.10;;;;;;21348;6647;66613;-73
2023/09/02 12:11:53;;;;;;;2.47;1.83;;;30.90;35.80;;;;;;21322;6647;73760;-73
2023/09/02 12:14:19;;;;;;;1.50;1.40;;;30.90;35.60;;;;;;21128;6647;301478;-72
2023/09/02 12:16:44;;;;;;;1.87;1.48;;;31.00;34.90;;;;;;21127;6647;333569;-72
2023/09/02 12:19:10;;;;;;;3.47;1.97;;;31.20;34.60;;;;;;21298;6647;66164;-72
2023/09/02 12:21:36;;;;;;;1.90;1.80;;;31.10;34.90;;;;;;21117;6645;300747;-72
2023/09/02 12:24:01;;;;;;;1.70;1.60;;;31.10;33.90;;;;;;21363;6647;65642;-72
2023/09/02 12:26:26;;;;;;;2.07;1.90;;;31.00;34.50;;;;;;21130;6647;300842;-73
2023/09/02 12:28:52;;;;;;;1.60;1.50;;;31.00;34.50;;;;;;21356;6647;66013;-73
2023/09/02 12:31:18;;;;;;;3.03;1.70;;;31.00;34.60;;;;;;21144;6647;272332;-72
2023/09/02 12:33:43;;;;;;;2.07;1.97;;;31.00;35.40;;;;;;21330;6647;69446;-73
2023/09/02 12:36:09;;;;;;;1.70;1.60;;;30.70;36.10;;;;;;21348;6647;65218;-73